sensor_id;sensor_type;location;lat;lon;timestamp;P1;durP1;ratioP1;P2;durP2;ratioP2
22166;SDS011;11249;52.468;13.776;2022-10-26T00:00:12;12.80;;;8.75;;
22166;SDS011;11249;52.468;13.776;2022-10-26T00:02:38;13.57;;;9.10;;
22166;SDS011;11249;52.468;13.776;2022-10-26T00:05:05;16.65;;;9.23;;
22166;SDS011;11249;52.468;13.776;2022-10-26T00:07:32;10.27;;;8.98;;
22166;SDS011;11249;52.468;13.776;2022-10-26T00:09:59;11.35;;;8.82;;
22166;SDS011;11249;52.468;13.776;2022-10-26T00:12:25;14.00;;;8.82;;
22166;SDS011;11249;52.468;13.776;2022-10-26T00:14:52;10.35;;;8.35;;
22166;SDS011;11249;52.468;13.776;2022-10-26T00:17:19;10.32;;;7.78;;
22166;SDS011;11249;52.468;13.776;2022-10-26T00:19:46;11.05;;;7.75;;
22166;SDS011;11249;52.468;13.776;2022-10-26T00:22:12;12.52;;;8.05;;
22166;SDS011;11249;52.468;13.776;2022-10-26T00:24:39;13.57;;;7.85;;
22166;SDS011;11249;52.468;13.776;2022-10-26T00:27:05;10.32;;;7.85;;
22166;SDS011;11249;52.468;13.776;2022-10-26T00:29:32;12.10;;;7.88;;
22166;SDS011;11249;52.468;13.776;2022-10-26T00:31:59;10.27;;;7.75;;
22166;SDS011;11249;52.468;13.776;2022-10-26T00:34:26;9.73;;;7.25;;
22166;SDS011;11249;52.468;13.776;2022-10-26T00:36:52;12.35;;;8.30;;
22166;SDS011;11249;52.468;13.776;2022-10-26T00:39:19;10.23;;;8.10;;
22166;SDS011;11249;52.468;13.776;2022-10-26T00:41:46;10.40;;;7.57;;
22166;SDS011;11249;52.468;13.776;2022-10-26T00:47:26;12.57;;;8.05;;
22166;SDS011;11249;52.468;13.776;2022-10-26T00:49:55;10.40;;;8.35;;
22166;SDS011;11249;52.468;13.776;2022-10-26T00:52:26;10.68;;;8.68;;
22166;SDS011;11249;52.468;13.776;2022-10-26T00:54:53;9.20;;;7.85;;
22166;SDS011;11249;52.468;13.776;2022-10-26T00:57:21;10.98;;;8.70;;
22166;SDS011;11249;52.468;13.776;2022-10-26T00:59:48;11.02;;;9.35;;
22166;SDS011;11249;52.468;13.776;2022-10-26T01:04:45;12.65;;;8.93;;
22166;SDS011;11249;52.468;13.776;2022-10-26T01:07:13;13.13;;;8.93;;
22166;SDS011;11249;52.468;13.776;2022-10-26T01:09:40;15.18;;;10.35;;
22166;SDS011;11249;52.468;13.776;2022-10-26T01:12:07;12.50;;;8.48;;
22166;SDS011;11249;52.468;13.776;2022-10-26T01:14:33;14.63;;;9.27;;
22166;SDS011;11249;52.468;13.776;2022-10-26T01:17:07;12.15;;;8.07;;
22166;SDS011;11249;52.468;13.776;2022-10-26T01:20:17;11.80;;;8.27;;
22166;SDS011;11249;52.468;13.776;2022-10-26T01:23:11;9.25;;;7.68;;
22166;SDS011;11249;52.468;13.776;2022-10-26T01:28:41;11.05;;;7.93;;
22166;SDS011;11249;52.468;13.776;2022-10-26T01:31:43;7.35;;;5.95;;
22166;SDS011;11249;52.468;13.776;2022-10-26T01:34:24;13.27;;;7.65;;
22166;SDS011;11249;52.468;13.776;2022-10-26T01:37:05;9.95;;;7.55;;
22166;SDS011;11249;52.468;13.776;2022-10-26T01:42:11;12.20;;;7.25;;
22166;SDS011;11249;52.468;13.776;2022-10-26T01:44:42;11.20;;;7.25;;
22166;SDS011;11249;52.468;13.776;2022-10-26T01:47:24;10.38;;;7.05;;
22166;SDS011;11249;52.468;13.776;2022-10-26T01:49:53;10.05;;;7.40;;
22166;SDS011;11249;52.468;13.776;2022-10-26T01:52:22;13.18;;;7.68;;
22166;SDS011;11249;52.468;13.776;2022-10-26T01:54:49;10.55;;;7.47;;
22166;SDS011;11249;52.468;13.776;2022-10-26T01:57:17;12.43;;;7.50;;
22166;SDS011;11249;52.468;13.776;2022-10-26T01:59:57;11.77;;;8.38;;
22166;SDS011;11249;52.468;13.776;2022-10-26T02:02:37;11.82;;;8.52;;
22166;SDS011;11249;52.468;13.776;2022-10-26T02:05:10;11.25;;;7.45;;
22166;SDS011;11249;52.468;13.776;2022-10-26T02:08:13;11.25;;;7.65;;
22166;SDS011;11249;52.468;13.776;2022-10-26T02:11:08;12.07;;;7.25;;
22166;SDS011;11249;52.468;13.776;2022-10-26T02:13:46;12.35;;;7.60;;
22166;SDS011;11249;52.468;13.776;2022-10-26T02:16:23;13.23;;;7.50;;
22166;SDS011;11249;52.468;13.776;2022-10-26T02:21:46;10.25;;;7.05;;
22166;SDS011;11249;52.468;13.776;2022-10-26T02:24:17;10.57;;;7.68;;
22166;SDS011;11249;52.468;13.776;2022-10-26T02:26:46;9.38;;;6.88;;
22166;SDS011;11249;52.468;13.776;2022-10-26T02:29:16;11.40;;;6.82;;
22166;SDS011;11249;52.468;13.776;2022-10-26T02:31:46;8.68;;;6.65;;
22166;SDS011;11249;52.468;13.776;2022-10-26T02:34:15;8.52;;;6.80;;
22166;SDS011;11249;52.468;13.776;2022-10-26T02:36:45;12.23;;;7.05;;
22166;SDS011;11249;52.468;13.776;2022-10-26T02:39:14;9.80;;;7.00;;
22166;SDS011;11249;52.468;13.776;2022-10-26T02:41:43;9.45;;;7.57;;
22166;SDS011;11249;52.468;13.776;2022-10-26T02:46:41;10.48;;;6.43;;
22166;SDS011;11249;52.468;13.776;2022-10-26T02:49:09;10.23;;;6.07;;
22166;SDS011;11249;52.468;13.776;2022-10-26T02:51:49;9.68;;;7.32;;
22166;SDS011;11249;52.468;13.776;2022-10-26T02:54:31;7.75;;;6.95;;
22166;SDS011;11249;52.468;13.776;2022-10-26T02:57:11;10.98;;;6.63;;
22166;SDS011;11249;52.468;13.776;2022-10-26T02:59:39;10.80;;;7.50;;
22166;SDS011;11249;52.468;13.776;2022-10-26T03:04:36;10.43;;;6.93;;
22166;SDS011;11249;52.468;13.776;2022-10-26T03:07:02;13.00;;;7.00;;
22166;SDS011;11249;52.468;13.776;2022-10-26T03:09:29;9.00;;;6.57;;
22166;SDS011;11249;52.468;13.776;2022-10-26T03:11:56;11.23;;;7.15;;
22166;SDS011;11249;52.468;13.776;2022-10-26T03:14:23;11.85;;;7.05;;
22166;SDS011;11249;52.468;13.776;2022-10-26T03:16:49;9.70;;;6.50;;
22166;SDS011;11249;52.468;13.776;2022-10-26T03:19:16;8.38;;;5.88;;
22166;SDS011;11249;52.468;13.776;2022-10-26T03:21:43;9.20;;;6.78;;
22166;SDS011;11249;52.468;13.776;2022-10-26T03:24:09;8.73;;;6.53;;
22166;SDS011;11249;52.468;13.776;2022-10-26T03:26:36;8.45;;;6.30;;
22166;SDS011;11249;52.468;13.776;2022-10-26T03:29:03;9.48;;;7.22;;
22166;SDS011;11249;52.468;13.776;2022-10-26T03:31:29;10.75;;;6.45;;
22166;SDS011;11249;52.468;13.776;2022-10-26T03:33:56;8.75;;;6.55;;
22166;SDS011;11249;52.468;13.776;2022-10-26T03:36:23;11.82;;;6.88;;
22166;SDS011;11249;52.468;13.776;2022-10-26T03:38:49;11.20;;;7.75;;
22166;SDS011;11249;52.468;13.776;2022-10-26T03:41:16;15.48;;;7.53;;
22166;SDS011;11249;52.468;13.776;2022-10-26T03:43:43;9.32;;;6.60;;
22166;SDS011;11249;52.468;13.776;2022-10-26T03:46:09;8.80;;;6.47;;
22166;SDS011;11249;52.468;13.776;2022-10-26T03:48:36;10.40;;;6.30;;
22166;SDS011;11249;52.468;13.776;2022-10-26T03:51:03;11.15;;;7.45;;
22166;SDS011;11249;52.468;13.776;2022-10-26T03:53:29;12.43;;;7.18;;
22166;SDS011;11249;52.468;13.776;2022-10-26T03:55:56;8.75;;;6.47;;
22166;SDS011;11249;52.468;13.776;2022-10-26T03:58:23;7.80;;;6.80;;
22166;SDS011;11249;52.468;13.776;2022-10-26T04:00:50;12.43;;;7.28;;
22166;SDS011;11249;52.468;13.776;2022-10-26T04:03:17;10.25;;;7.38;;
22166;SDS011;11249;52.468;13.776;2022-10-26T04:05:44;15.68;;;7.35;;
22166;SDS011;11249;52.468;13.776;2022-10-26T04:08:10;12.38;;;7.78;;
22166;SDS011;11249;52.468;13.776;2022-10-26T04:10:37;12.52;;;7.65;;
22166;SDS011;11249;52.468;13.776;2022-10-26T04:13:04;10.02;;;7.00;;
22166;SDS011;11249;52.468;13.776;2022-10-26T04:15:30;15.38;;;7.50;;
22166;SDS011;11249;52.468;13.776;2022-10-26T04:17:58;12.50;;;7.50;;
22166;SDS011;11249;52.468;13.776;2022-10-26T04:20:26;13.77;;;9.45;;
22166;SDS011;11249;52.468;13.776;2022-10-26T04:23:02;11.48;;;7.65;;
22166;SDS011;11249;52.468;13.776;2022-10-26T04:25:30;10.50;;;7.40;;
22166;SDS011;11249;52.468;13.776;2022-10-26T04:27:59;11.13;;;7.28;;
22166;SDS011;11249;52.468;13.776;2022-10-26T04:30:26;16.17;;;7.50;;
22166;SDS011;11249;52.468;13.776;2022-10-26T04:32:53;11.52;;;6.90;;
22166;SDS011;11249;52.468;13.776;2022-10-26T04:35:20;10.27;;;7.00;;
22166;SDS011;11249;52.468;13.776;2022-10-26T04:37:47;9.57;;;6.65;;
22166;SDS011;11249;52.468;13.776;2022-10-26T04:40:14;15.75;;;7.25;;
22166;SDS011;11249;52.468;13.776;2022-10-26T04:42:44;9.23;;;6.30;;
22166;SDS011;11249;52.468;13.776;2022-10-26T04:45:13;9.35;;;5.93;;
22166;SDS011;11249;52.468;13.776;2022-10-26T04:47:41;10.77;;;6.75;;
22166;SDS011;11249;52.468;13.776;2022-10-26T04:50:08;12.38;;;6.95;;
22166;SDS011;11249;52.468;13.776;2022-10-26T04:52:36;9.80;;;6.70;;
22166;SDS011;11249;52.468;13.776;2022-10-26T04:55:03;13.27;;;6.35;;
22166;SDS011;11249;52.468;13.776;2022-10-26T04:57:31;7.20;;;5.63;;
22166;SDS011;11249;52.468;13.776;2022-10-26T04:59:59;12.27;;;7.35;;
22166;SDS011;11249;52.468;13.776;2022-10-26T05:02:27;16.42;;;6.97;;
22166;SDS011;11249;52.468;13.776;2022-10-26T05:04:54;11.02;;;7.13;;
22166;SDS011;11249;52.468;13.776;2022-10-26T05:07:21;25.80;;;9.60;;
22166;SDS011;11249;52.468;13.776;2022-10-26T05:09:48;25.40;;;9.48;;
22166;SDS011;11249;52.468;13.776;2022-10-26T05:12:14;35.33;;;10.73;;
22166;SDS011;11249;52.468;13.776;2022-10-26T05:14:41;91.60;;;14.30;;
22166;SDS011;11249;52.468;13.776;2022-10-26T05:17:08;50.83;;;12.07;;
22166;SDS011;11249;52.468;13.776;2022-10-26T05:19:34;20.90;;;10.25;;
22166;SDS011;11249;52.468;13.776;2022-10-26T05:22:01;29.77;;;11.38;;
22166;SDS011;11249;52.468;13.776;2022-10-26T05:24:28;20.67;;;11.13;;
22166;SDS011;11249;52.468;13.776;2022-10-26T05:26:54;29.05;;;11.32;;
22166;SDS011;11249;52.468;13.776;2022-10-26T05:29:21;46.40;;;13.55;;
22166;SDS011;11249;52.468;13.776;2022-10-26T05:31:48;20.42;;;11.00;;
22166;SDS011;11249;52.468;13.776;2022-10-26T05:34:14;23.33;;;12.25;;
22166;SDS011;11249;52.468;13.776;2022-10-26T05:36:41;24.92;;;11.93;;
22166;SDS011;11249;52.468;13.776;2022-10-26T05:39:08;22.98;;;12.80;;
22166;SDS011;11249;52.468;13.776;2022-10-26T05:41:35;25.73;;;12.63;;
22166;SDS011;11249;52.468;13.776;2022-10-26T05:44:01;25.50;;;12.30;;
22166;SDS011;11249;52.468;13.776;2022-10-26T05:46:28;22.70;;;11.18;;
22166;SDS011;11249;52.468;13.776;2022-10-26T05:48:55;18.38;;;10.85;;
22166;SDS011;11249;52.468;13.776;2022-10-26T05:51:21;14.05;;;10.35;;
22166;SDS011;11249;52.468;13.776;2022-10-26T05:53:50;16.73;;;11.25;;
22166;SDS011;11249;52.468;13.776;2022-10-26T05:56:20;19.95;;;11.77;;
22166;SDS011;11249;52.468;13.776;2022-10-26T05:58:59;24.75;;;12.05;;
22166;SDS011;11249;52.468;13.776;2022-10-26T06:06:52;23.15;;;12.20;;
22166;SDS011;11249;52.468;13.776;2022-10-26T06:09:20;16.15;;;9.73;;
22166;SDS011;11249;52.468;13.776;2022-10-26T06:11:47;21.08;;;11.57;;
22166;SDS011;11249;52.468;13.776;2022-10-26T06:14:14;19.20;;;10.40;;
22166;SDS011;11249;52.468;13.776;2022-10-26T06:16:46;16.00;;;10.48;;
22166;SDS011;11249;52.468;13.776;2022-10-26T06:21:59;14.90;;;9.02;;
22166;SDS011;11249;52.468;13.776;2022-10-26T06:24:59;15.25;;;8.90;;
22166;SDS011;11249;52.468;13.776;2022-10-26T06:30:06;10.55;;;6.90;;
22166;SDS011;11249;52.468;13.776;2022-10-26T06:32:38;8.55;;;6.53;;
22166;SDS011;11249;52.468;13.776;2022-10-26T06:35:14;10.32;;;7.78;;
22166;SDS011;11249;52.468;13.776;2022-10-26T06:38:03;9.90;;;7.82;;
22166;SDS011;11249;52.468;13.776;2022-10-26T06:40:35;9.18;;;6.57;;
22166;SDS011;11249;52.468;13.776;2022-10-26T06:43:08;8.05;;;6.38;;
22166;SDS011;11249;52.468;13.776;2022-10-26T06:45:42;12.25;;;7.45;;
22166;SDS011;11249;52.468;13.776;2022-10-26T06:48:14;12.45;;;7.10;;
22166;SDS011;11249;52.468;13.776;2022-10-26T06:50:47;10.57;;;7.35;;
22166;SDS011;11249;52.468;13.776;2022-10-26T06:53:19;11.40;;;7.72;;
22166;SDS011;11249;52.468;13.776;2022-10-26T06:55:58;11.00;;;7.10;;
22166;SDS011;11249;52.468;13.776;2022-10-26T06:58:31;10.13;;;7.70;;
22166;SDS011;11249;52.468;13.776;2022-10-26T07:01:00;11.00;;;7.00;;
22166;SDS011;11249;52.468;13.776;2022-10-26T07:03:27;10.23;;;7.18;;
22166;SDS011;11249;52.468;13.776;2022-10-26T07:05:54;10.80;;;7.93;;
22166;SDS011;11249;52.468;13.776;2022-10-26T07:08:20;10.75;;;8.27;;
22166;SDS011;11249;52.468;13.776;2022-10-26T07:10:47;10.38;;;8.15;;
22166;SDS011;11249;52.468;13.776;2022-10-26T07:13:14;12.23;;;8.80;;
22166;SDS011;11249;52.468;13.776;2022-10-26T07:15:41;12.60;;;8.90;;
22166;SDS011;11249;52.468;13.776;2022-10-26T07:18:08;10.38;;;7.60;;
22166;SDS011;11249;52.468;13.776;2022-10-26T07:20:36;8.07;;;7.03;;
22166;SDS011;11249;52.468;13.776;2022-10-26T07:23:04;8.82;;;7.07;;
22166;SDS011;11249;52.468;13.776;2022-10-26T07:25:33;9.75;;;7.28;;
22166;SDS011;11249;52.468;13.776;2022-10-26T07:28:00;9.27;;;7.45;;
22166;SDS011;11249;52.468;13.776;2022-10-26T07:30:27;8.05;;;6.53;;
22166;SDS011;11249;52.468;13.776;2022-10-26T07:32:59;9.55;;;7.97;;
22166;SDS011;11249;52.468;13.776;2022-10-26T07:35:26;11.48;;;8.90;;
22166;SDS011;11249;52.468;13.776;2022-10-26T07:38:00;10.35;;;7.82;;
22166;SDS011;11249;52.468;13.776;2022-10-26T07:40:27;14.05;;;9.07;;
22166;SDS011;11249;52.468;13.776;2022-10-26T07:42:57;11.75;;;9.15;;
22166;SDS011;11249;52.468;13.776;2022-10-26T07:45:26;11.27;;;8.35;;
22166;SDS011;11249;52.468;13.776;2022-10-26T07:47:53;12.00;;;7.47;;
22166;SDS011;11249;52.468;13.776;2022-10-26T07:50:20;11.63;;;9.23;;
22166;SDS011;11249;52.468;13.776;2022-10-26T07:52:48;10.73;;;8.18;;
22166;SDS011;11249;52.468;13.776;2022-10-26T07:55:15;12.10;;;9.00;;
22166;SDS011;11249;52.468;13.776;2022-10-26T07:57:42;13.27;;;9.20;;
22166;SDS011;11249;52.468;13.776;2022-10-26T08:00:09;16.67;;;10.00;;
22166;SDS011;11249;52.468;13.776;2022-10-26T08:02:36;12.75;;;8.85;;
22166;SDS011;11249;52.468;13.776;2022-10-26T08:05:03;14.07;;;9.57;;
22166;SDS011;11249;52.468;13.776;2022-10-26T08:07:31;14.10;;;9.95;;
22166;SDS011;11249;52.468;13.776;2022-10-26T08:09:57;17.63;;;10.60;;
22166;SDS011;11249;52.468;13.776;2022-10-26T08:12:24;15.23;;;11.25;;
22166;SDS011;11249;52.468;13.776;2022-10-26T08:14:51;18.52;;;11.65;;
22166;SDS011;11249;52.468;13.776;2022-10-26T08:17:17;17.33;;;11.25;;
22166;SDS011;11249;52.468;13.776;2022-10-26T08:19:46;14.23;;;11.07;;
22166;SDS011;11249;52.468;13.776;2022-10-26T08:22:14;14.93;;;10.80;;
22166;SDS011;11249;52.468;13.776;2022-10-26T08:24:41;14.20;;;10.65;;
22166;SDS011;11249;52.468;13.776;2022-10-26T08:27:12;14.02;;;10.48;;
22166;SDS011;11249;52.468;13.776;2022-10-26T08:29:40;15.52;;;11.93;;
22166;SDS011;11249;52.468;13.776;2022-10-26T08:32:07;17.55;;;11.98;;
22166;SDS011;11249;52.468;13.776;2022-10-26T08:34:34;22.25;;;13.05;;
22166;SDS011;11249;52.468;13.776;2022-10-26T08:37:00;19.88;;;13.73;;
22166;SDS011;11249;52.468;13.776;2022-10-26T08:39:27;17.08;;;13.10;;
22166;SDS011;11249;52.468;13.776;2022-10-26T08:42:17;24.23;;;12.68;;
22166;SDS011;11249;52.468;13.776;2022-10-26T08:44:46;19.70;;;13.10;;
22166;SDS011;11249;52.468;13.776;2022-10-26T08:47:20;17.27;;;12.25;;
22166;SDS011;11249;52.468;13.776;2022-10-26T08:49:51;16.30;;;12.18;;
22166;SDS011;11249;52.468;13.776;2022-10-26T08:55:03;18.20;;;11.82;;
22166;SDS011;11249;52.468;13.776;2022-10-26T08:57:34;17.23;;;11.82;;
22166;SDS011;11249;52.468;13.776;2022-10-26T09:02:32;15.73;;;10.88;;
22166;SDS011;11249;52.468;13.776;2022-10-26T09:04:59;17.58;;;11.02;;
22166;SDS011;11249;52.468;13.776;2022-10-26T09:07:35;14.77;;;11.55;;
22166;SDS011;11249;52.468;13.776;2022-10-26T09:10:17;18.33;;;10.90;;
22166;SDS011;11249;52.468;13.776;2022-10-26T09:12:58;16.15;;;9.77;;
22166;SDS011;11249;52.468;13.776;2022-10-26T09:15:47;13.23;;;9.30;;
22166;SDS011;11249;52.468;13.776;2022-10-26T09:18:31;16.75;;;9.55;;
22166;SDS011;11249;52.468;13.776;2022-10-26T09:26:57;12.45;;;8.23;;
22166;SDS011;11249;52.468;13.776;2022-10-26T09:29:46;11.77;;;8.18;;
22166;SDS011;11249;52.468;13.776;2022-10-26T09:32:18;9.32;;;7.63;;
22166;SDS011;11249;52.468;13.776;2022-10-26T09:34:48;10.70;;;7.75;;
22166;SDS011;11249;52.468;13.776;2022-10-26T09:37:24;13.80;;;7.95;;
22166;SDS011;11249;52.468;13.776;2022-10-26T09:39:57;10.18;;;7.20;;
22166;SDS011;11249;52.468;13.776;2022-10-26T09:42:35;11.80;;;7.30;;
22166;SDS011;11249;52.468;13.776;2022-10-26T09:45:15;11.82;;;7.35;;
22166;SDS011;11249;52.468;13.776;2022-10-26T09:47:48;8.98;;;6.35;;
22166;SDS011;11249;52.468;13.776;2022-10-26T09:50:22;10.82;;;6.55;;
22166;SDS011;11249;52.468;13.776;2022-10-26T09:52:58;10.77;;;6.37;;
22166;SDS011;11249;52.468;13.776;2022-10-26T09:55:24;12.88;;;6.95;;
22166;SDS011;11249;52.468;13.776;2022-10-26T09:57:53;13.52;;;7.10;;
22166;SDS011;11249;52.468;13.776;2022-10-26T10:00:23;8.77;;;6.15;;
22166;SDS011;11249;52.468;13.776;2022-10-26T10:02:54;10.30;;;5.93;;
22166;SDS011;11249;52.468;13.776;2022-10-26T10:05:24;11.13;;;6.22;;
22166;SDS011;11249;52.468;13.776;2022-10-26T10:08:13;9.45;;;4.75;;
22166;SDS011;11249;52.468;13.776;2022-10-26T10:13:34;13.85;;;5.60;;
22166;SDS011;11249;52.468;13.776;2022-10-26T10:18:31;9.52;;;4.85;;
22166;SDS011;11249;52.468;13.776;2022-10-26T10:20:59;9.88;;;4.88;;
22166;SDS011;11249;52.468;13.776;2022-10-26T10:23:27;4.93;;;4.43;;
22166;SDS011;11249;52.468;13.776;2022-10-26T10:26:00;7.93;;;4.38;;
22166;SDS011;11249;52.468;13.776;2022-10-26T10:28:29;7.00;;;4.47;;
22166;SDS011;11249;52.468;13.776;2022-10-26T10:30:57;10.55;;;4.63;;
22166;SDS011;11249;52.468;13.776;2022-10-26T10:33:36;12.35;;;4.75;;
22166;SDS011;11249;52.468;13.776;2022-10-26T10:36:06;9.02;;;4.07;;
22166;SDS011;11249;52.468;13.776;2022-10-26T10:38:37;10.70;;;4.43;;
22166;SDS011;11249;52.468;13.776;2022-10-26T10:41:13;13.23;;;4.38;;
22166;SDS011;11249;52.468;13.776;2022-10-26T10:43:44;7.78;;;3.58;;
22166;SDS011;11249;52.468;13.776;2022-10-26T10:46:17;7.88;;;4.00;;
22166;SDS011;11249;52.468;13.776;2022-10-26T10:48:47;5.05;;;3.13;;
22166;SDS011;11249;52.468;13.776;2022-10-26T10:51:18;5.60;;;3.22;;
22166;SDS011;11249;52.468;13.776;2022-10-26T10:53:49;6.82;;;3.10;;
22166;SDS011;11249;52.468;13.776;2022-10-26T11:01:39;5.93;;;3.15;;
22166;SDS011;11249;52.468;13.776;2022-10-26T11:07:14;4.88;;;2.50;;
22166;SDS011;11249;52.468;13.776;2022-10-26T11:09:45;4.30;;;2.45;;
22166;SDS011;11249;52.468;13.776;2022-10-26T11:12:17;5.38;;;2.40;;
22166;SDS011;11249;52.468;13.776;2022-10-26T11:14:51;7.00;;;2.10;;
22166;SDS011;11249;52.468;13.776;2022-10-26T11:17:28;6.95;;;2.60;;
22166;SDS011;11249;52.468;13.776;2022-10-26T11:20:01;4.97;;;2.45;;
22166;SDS011;11249;52.468;13.776;2022-10-26T11:22:36;5.15;;;2.22;;
22166;SDS011;11249;52.468;13.776;2022-10-26T11:27:51;5.80;;;2.25;;
22166;SDS011;11249;52.468;13.776;2022-10-26T11:30:24;6.03;;;2.30;;
22166;SDS011;11249;52.468;13.776;2022-10-26T11:33:08;5.00;;;2.65;;
22166;SDS011;11249;52.468;13.776;2022-10-26T11:41:19;6.65;;;2.38;;
22166;SDS011;11249;52.468;13.776;2022-10-26T11:46:56;5.43;;;1.88;;
22166;SDS011;11249;52.468;13.776;2022-10-26T11:49:42;5.53;;;2.08;;
22166;SDS011;11249;52.468;13.776;2022-10-26T11:52:29;4.93;;;2.35;;
22166;SDS011;11249;52.468;13.776;2022-10-26T11:55:10;5.97;;;2.08;;
22166;SDS011;11249;52.468;13.776;2022-10-26T11:57:37;3.85;;;1.80;;
22166;SDS011;11249;52.468;13.776;2022-10-26T12:00:06;7.78;;;2.03;;
22166;SDS011;11249;52.468;13.776;2022-10-26T12:02:43;3.03;;;1.75;;
22166;SDS011;11249;52.468;13.776;2022-10-26T12:07:42;3.50;;;2.03;;
22166;SDS011;11249;52.468;13.776;2022-10-26T12:10:23;4.75;;;1.75;;
22166;SDS011;11249;52.468;13.776;2022-10-26T12:12:54;6.05;;;2.65;;
22166;SDS011;11249;52.468;13.776;2022-10-26T12:15:40;2.47;;;1.75;;
22166;SDS011;11249;52.468;13.776;2022-10-26T12:18:39;5.50;;;1.70;;
22166;SDS011;11249;52.468;13.776;2022-10-26T12:21:27;3.40;;;1.40;;
22166;SDS011;11249;52.468;13.776;2022-10-26T12:23:56;5.68;;;1.83;;
22166;SDS011;11249;52.468;13.776;2022-10-26T12:34:03;6.05;;;1.80;;
22166;SDS011;11249;52.468;13.776;2022-10-26T12:44:36;3.53;;;1.52;;
22166;SDS011;11249;52.468;13.776;2022-10-26T12:47:08;3.83;;;1.50;;
22166;SDS011;11249;52.468;13.776;2022-10-26T12:58:29;5.82;;;1.50;;
22166;SDS011;11249;52.468;13.776;2022-10-26T13:01:11;5.78;;;1.40;;
22166;SDS011;11249;52.468;13.776;2022-10-26T13:10:01;4.40;;;1.50;;
22166;SDS011;11249;52.468;13.776;2022-10-26T13:12:36;4.38;;;1.80;;
22166;SDS011;11249;52.468;13.776;2022-10-26T13:17:52;4.13;;;1.88;;
22166;SDS011;11249;52.468;13.776;2022-10-26T13:20:24;6.35;;;1.63;;
22166;SDS011;11249;52.468;13.776;2022-10-26T13:22:52;3.30;;;1.48;;
22166;SDS011;11249;52.468;13.776;2022-10-26T13:25:21;4.15;;;1.60;;
22166;SDS011;11249;52.468;13.776;2022-10-26T13:28:01;4.82;;;2.28;;
22166;SDS011;11249;52.468;13.776;2022-10-26T13:30:52;7.05;;;2.45;;
22166;SDS011;11249;52.468;13.776;2022-10-26T13:33:19;6.00;;;1.35;;
22166;SDS011;11249;52.468;13.776;2022-10-26T13:36:00;2.42;;;1.17;;
22166;SDS011;11249;52.468;13.776;2022-10-26T13:38:30;2.72;;;1.65;;
22166;SDS011;11249;52.468;13.776;2022-10-26T13:41:12;4.25;;;1.77;;
22166;SDS011;11249;52.468;13.776;2022-10-26T13:43:48;2.75;;;1.60;;
22166;SDS011;11249;52.468;13.776;2022-10-26T13:46:23;3.65;;;1.42;;
22166;SDS011;11249;52.468;13.776;2022-10-26T13:49:00;3.00;;;1.65;;
22166;SDS011;11249;52.468;13.776;2022-10-26T13:51:39;4.97;;;1.65;;
22166;SDS011;11249;52.468;13.776;2022-10-26T13:54:14;4.10;;;2.00;;
22166;SDS011;11249;52.468;13.776;2022-10-26T13:59:26;4.18;;;1.65;;
22166;SDS011;11249;52.468;13.776;2022-10-26T14:02:05;5.13;;;1.70;;
22166;SDS011;11249;52.468;13.776;2022-10-26T14:04:48;5.60;;;1.30;;
22166;SDS011;11249;52.468;13.776;2022-10-26T14:07:23;4.50;;;1.90;;
22166;SDS011;11249;52.468;13.776;2022-10-26T14:09:57;6.10;;;1.70;;
22166;SDS011;11249;52.468;13.776;2022-10-26T14:12:24;3.78;;;1.42;;
22166;SDS011;11249;52.468;13.776;2022-10-26T14:14:56;3.72;;;1.55;;
22166;SDS011;11249;52.468;13.776;2022-10-26T14:17:42;7.28;;;1.77;;
22166;SDS011;11249;52.468;13.776;2022-10-26T14:20:17;8.30;;;1.80;;
22166;SDS011;11249;52.468;13.776;2022-10-26T14:22:46;2.97;;;1.30;;
22166;SDS011;11249;52.468;13.776;2022-10-26T14:25:24;5.50;;;1.42;;
22166;SDS011;11249;52.468;13.776;2022-10-26T14:28:30;4.05;;;1.48;;
22166;SDS011;11249;52.468;13.776;2022-10-26T14:31:09;4.05;;;1.48;;
22166;SDS011;11249;52.468;13.776;2022-10-26T14:33:43;3.65;;;1.65;;
22166;SDS011;11249;52.468;13.776;2022-10-26T14:36:09;2.10;;;1.30;;
22166;SDS011;11249;52.468;13.776;2022-10-26T14:38:40;7.22;;;1.45;;
22166;SDS011;11249;52.468;13.776;2022-10-26T14:41:10;4.80;;;1.40;;
22166;SDS011;11249;52.468;13.776;2022-10-26T14:43:40;4.13;;;1.65;;
22166;SDS011;11249;52.468;13.776;2022-10-26T14:46:13;2.90;;;1.30;;
22166;SDS011;11249;52.468;13.776;2022-10-26T14:51:32;4.15;;;1.60;;
22166;SDS011;11249;52.468;13.776;2022-10-26T14:54:02;4.90;;;1.58;;
22166;SDS011;11249;52.468;13.776;2022-10-26T14:56:30;4.47;;;1.60;;
22166;SDS011;11249;52.468;13.776;2022-10-26T14:59:09;3.97;;;1.30;;
22166;SDS011;11249;52.468;13.776;2022-10-26T15:07:14;3.47;;;1.52;;
22166;SDS011;11249;52.468;13.776;2022-10-26T15:09:52;1.77;;;1.42;;
22166;SDS011;11249;52.468;13.776;2022-10-26T15:14:54;6.53;;;2.03;;
22166;SDS011;11249;52.468;13.776;2022-10-26T15:17:23;7.40;;;2.05;;
22166;SDS011;11249;52.468;13.776;2022-10-26T15:19:57;3.03;;;1.67;;
22166;SDS011;11249;52.468;13.776;2022-10-26T15:22:31;3.40;;;1.60;;
22166;SDS011;11249;52.468;13.776;2022-10-26T15:25:00;4.32;;;1.80;;
22166;SDS011;11249;52.468;13.776;2022-10-26T15:30:12;3.25;;;1.55;;
22166;SDS011;11249;52.468;13.776;2022-10-26T15:32:49;3.25;;;1.90;;
22166;SDS011;11249;52.468;13.776;2022-10-26T15:37:45;7.40;;;3.20;;
22166;SDS011;11249;52.468;13.776;2022-10-26T15:40:13;7.30;;;3.00;;
22166;SDS011;11249;52.468;13.776;2022-10-26T15:42:40;5.95;;;2.83;;
22166;SDS011;11249;52.468;13.776;2022-10-26T15:45:18;8.02;;;2.78;;
22166;SDS011;11249;52.468;13.776;2022-10-26T15:47:50;8.48;;;3.15;;
22166;SDS011;11249;52.468;13.776;2022-10-26T15:50:25;6.35;;;3.33;;
22166;SDS011;11249;52.468;13.776;2022-10-26T15:52:54;11.20;;;2.80;;
22166;SDS011;11249;52.468;13.776;2022-10-26T15:55:25;5.57;;;3.15;;
22166;SDS011;11249;52.468;13.776;2022-10-26T15:57:52;6.32;;;3.00;;
22166;SDS011;11249;52.468;13.776;2022-10-26T16:00:19;5.25;;;2.63;;
22166;SDS011;11249;52.468;13.776;2022-10-26T16:02:46;10.75;;;3.00;;
22166;SDS011;11249;52.468;13.776;2022-10-26T16:05:13;16.85;;;2.95;;
22166;SDS011;11249;52.468;13.776;2022-10-26T16:07:41;14.43;;;2.90;;
22166;SDS011;11249;52.468;13.776;2022-10-26T16:10:21;2.85;;;2.25;;
22166;SDS011;11249;52.468;13.776;2022-10-26T16:12:50;6.32;;;2.80;;
22166;SDS011;11249;52.468;13.776;2022-10-26T16:15:23;7.95;;;3.00;;
22166;SDS011;11249;52.468;13.776;2022-10-26T16:17:50;10.57;;;3.40;;
22166;SDS011;11249;52.468;13.776;2022-10-26T16:20:18;7.03;;;2.58;;
22166;SDS011;11249;52.468;13.776;2022-10-26T16:22:48;4.22;;;2.75;;
22166;SDS011;11249;52.468;13.776;2022-10-26T16:25:17;8.25;;;3.35;;
22166;SDS011;11249;52.468;13.776;2022-10-26T16:27:45;9.02;;;3.72;;
22166;SDS011;11249;52.468;13.776;2022-10-26T16:30:13;7.35;;;3.17;;
22166;SDS011;11249;52.468;13.776;2022-10-26T16:32:41;8.82;;;3.88;;
22166;SDS011;11249;52.468;13.776;2022-10-26T16:35:09;5.38;;;3.30;;
22166;SDS011;11249;52.468;13.776;2022-10-26T16:37:36;9.40;;;2.97;;
22166;SDS011;11249;52.468;13.776;2022-10-26T16:40:03;8.02;;;3.85;;
22166;SDS011;11249;52.468;13.776;2022-10-26T16:42:31;5.32;;;3.47;;
22166;SDS011;11249;52.468;13.776;2022-10-26T16:44:58;5.32;;;3.40;;
22166;SDS011;11249;52.468;13.776;2022-10-26T16:49:57;6.25;;;3.63;;
22166;SDS011;11249;52.468;13.776;2022-10-26T16:52:23;6.60;;;3.58;;